sensor_id;sensor_type;location;lat;lon;timestamp;P1;durP1;ratioP1;P2;durP2;ratioP2
47429;SDS011;33181;49.246;7.372;2022-12-29T00:01:55;7.93;;;4.43;;
47429;SDS011;33181;49.246;7.372;2022-12-29T00:04:21;8.53;;;4.20;;
47429;SDS011;33181;49.246;7.372;2022-12-29T00:06:47;6.83;;;4.57;;
47429;SDS011;33181;49.246;7.372;2022-12-29T00:09:13;5.30;;;3.90;;
47429;SDS011;33181;49.246;7.372;2022-12-29T00:11:41;5.07;;;3.87;;
47429;SDS011;33181;49.246;7.372;2022-12-29T00:14:10;5.43;;;4.00;;
47429;SDS011;33181;49.246;7.372;2022-12-29T00:16:55;3.70;;;3.10;;
47429;SDS011;33181;49.246;7.372;2022-12-29T00:19:21;6.23;;;3.40;;
47429;SDS011;33181;49.246;7.372;2022-12-29T00:22:06;5.03;;;4.03;;
47429;SDS011;33181;49.246;7.372;2022-12-29T00:24:56;5.70;;;3.50;;
47429;SDS011;33181;49.246;7.372;2022-12-29T00:27:41;7.10;;;3.20;;
47429;SDS011;33181;49.246;7.372;2022-12-29T00:30:25;10.30;;;3.30;;
47429;SDS011;33181;49.246;7.372;2022-12-29T00:33:14;3.83;;;2.50;;
47429;SDS011;33181;49.246;7.372;2022-12-29T00:36:16;3.93;;;2.70;;
47429;SDS011;33181;49.246;7.372;2022-12-29T00:42:02;4.53;;;2.57;;
47429;SDS011;33181;49.246;7.372;2022-12-29T00:44:48;4.67;;;2.90;;
47429;SDS011;33181;49.246;7.372;2022-12-29T00:47:14;3.97;;;2.97;;
47429;SDS011;33181;49.246;7.372;2022-12-29T00:49:40;3.93;;;2.67;;
47429;SDS011;33181;49.246;7.372;2022-12-29T00:52:09;4.50;;;2.80;;
47429;SDS011;33181;49.246;7.372;2022-12-29T00:54:38;3.57;;;2.80;;
47429;SDS011;33181;49.246;7.372;2022-12-29T00:57:06;3.60;;;2.70;;
47429;SDS011;33181;49.246;7.372;2022-12-29T00:59:37;5.27;;;2.83;;
47429;SDS011;33181;49.246;7.372;2022-12-29T01:02:05;4.50;;;2.80;;
47429;SDS011;33181;49.246;7.372;2022-12-29T01:04:31;7.67;;;2.97;;
47429;SDS011;33181;49.246;7.372;2022-12-29T01:06:57;4.73;;;2.70;;
47429;SDS011;33181;49.246;7.372;2022-12-29T01:09:23;5.93;;;3.27;;
47429;SDS011;33181;49.246;7.372;2022-12-29T01:12:08;5.37;;;3.37;;
47429;SDS011;33181;49.246;7.372;2022-12-29T01:14:34;6.27;;;3.23;;
47429;SDS011;33181;49.246;7.372;2022-12-29T01:17:00;5.50;;;3.30;;
47429;SDS011;33181;49.246;7.372;2022-12-29T01:19:26;4.20;;;2.80;;
47429;SDS011;33181;49.246;7.372;2022-12-29T01:21:52;5.90;;;3.03;;
47429;SDS011;33181;49.246;7.372;2022-12-29T01:24:18;7.50;;;3.30;;
47429;SDS011;33181;49.246;7.372;2022-12-29T01:26:46;5.87;;;3.37;;
47429;SDS011;33181;49.246;7.372;2022-12-29T01:29:13;6.23;;;3.63;;
47429;SDS011;33181;49.246;7.372;2022-12-29T01:31:39;5.17;;;3.60;;
47429;SDS011;33181;49.246;7.372;2022-12-29T01:34:05;6.87;;;3.23;;
47429;SDS011;33181;49.246;7.372;2022-12-29T01:36:32;4.50;;;3.47;;
47429;SDS011;33181;49.246;7.372;2022-12-29T01:38:58;8.80;;;3.50;;
47429;SDS011;33181;49.246;7.372;2022-12-29T01:41:23;4.90;;;3.20;;
47429;SDS011;33181;49.246;7.372;2022-12-29T01:43:57;8.63;;;4.73;;
47429;SDS011;33181;49.246;7.372;2022-12-29T01:46:33;8.07;;;4.30;;
47429;SDS011;33181;49.246;7.372;2022-12-29T01:49:09;5.87;;;3.53;;
47429;SDS011;33181;49.246;7.372;2022-12-29T01:51:53;5.50;;;3.30;;
47429;SDS011;33181;49.246;7.372;2022-12-29T01:54:42;5.97;;;3.47;;
47429;SDS011;33181;49.246;7.372;2022-12-29T01:57:16;4.80;;;3.37;;
47429;SDS011;33181;49.246;7.372;2022-12-29T01:59:49;4.93;;;3.60;;
47429;SDS011;33181;49.246;7.372;2022-12-29T02:02:32;7.10;;;3.73;;
47429;SDS011;33181;49.246;7.372;2022-12-29T02:04:58;8.40;;;3.97;;
47429;SDS011;33181;49.246;7.372;2022-12-29T02:07:29;6.13;;;3.30;;
47429;SDS011;33181;49.246;7.372;2022-12-29T02:09:56;4.27;;;3.20;;
47429;SDS011;33181;49.246;7.372;2022-12-29T02:12:23;4.97;;;3.00;;
47429;SDS011;33181;49.246;7.372;2022-12-29T02:14:50;5.23;;;3.50;;
47429;SDS011;33181;49.246;7.372;2022-12-29T02:31:24;3.83;;;3.00;;
47429;SDS011;33181;49.246;7.372;2022-12-29T02:37:15;3.93;;;2.83;;
47429;SDS011;33181;49.246;7.372;2022-12-29T02:46:06;4.70;;;3.20;;
47429;SDS011;33181;49.246;7.372;2022-12-29T02:48:49;4.00;;;3.30;;
47429;SDS011;33181;49.246;7.372;2022-12-29T02:51:52;8.83;;;3.37;;
47429;SDS011;33181;49.246;7.372;2022-12-29T02:54:39;7.77;;;3.67;;
47429;SDS011;33181;49.246;7.372;2022-12-29T02:57:10;5.50;;;3.20;;
47429;SDS011;33181;49.246;7.372;2022-12-29T02:59:37;4.57;;;3.13;;
47429;SDS011;33181;49.246;7.372;2022-12-29T03:08:06;5.77;;;3.60;;
47429;SDS011;33181;49.246;7.372;2022-12-29T03:13:39;3.77;;;2.90;;
47429;SDS011;33181;49.246;7.372;2022-12-29T03:19:21;9.47;;;3.00;;
47429;SDS011;33181;49.246;7.372;2022-12-29T03:22:08;4.57;;;3.10;;
47429;SDS011;33181;49.246;7.372;2022-12-29T03:25:00;5.13;;;3.00;;
47429;SDS011;33181;49.246;7.372;2022-12-29T03:31:00;4.00;;;2.90;;
47429;SDS011;33181;49.246;7.372;2022-12-29T03:33:29;5.13;;;2.90;;
47429;SDS011;33181;49.246;7.372;2022-12-29T03:35:58;5.13;;;2.80;;
47429;SDS011;33181;49.246;7.372;2022-12-29T03:38:30;5.40;;;3.10;;
47429;SDS011;33181;49.246;7.372;2022-12-29T03:41:13;5.33;;;3.10;;
47429;SDS011;33181;49.246;7.372;2022-12-29T03:43:45;5.07;;;2.70;;
47429;SDS011;33181;49.246;7.372;2022-12-29T03:46:11;4.40;;;2.83;;
47429;SDS011;33181;49.246;7.372;2022-12-29T03:48:36;3.73;;;2.90;;
47429;SDS011;33181;49.246;7.372;2022-12-29T03:51:02;4.97;;;2.87;;
47429;SDS011;33181;49.246;7.372;2022-12-29T03:53:28;3.70;;;2.87;;
47429;SDS011;33181;49.246;7.372;2022-12-29T03:55:56;4.20;;;3.10;;
47429;SDS011;33181;49.246;7.372;2022-12-29T03:58:21;4.70;;;3.13;;
47429;SDS011;33181;49.246;7.372;2022-12-29T04:00:47;4.53;;;2.90;;
47429;SDS011;33181;49.246;7.372;2022-12-29T04:03:13;4.60;;;3.00;;
47429;SDS011;33181;49.246;7.372;2022-12-29T04:05:39;7.70;;;2.83;;
47429;SDS011;33181;49.246;7.372;2022-12-29T04:08:07;3.67;;;2.77;;
47429;SDS011;33181;49.246;7.372;2022-12-29T04:10:33;6.00;;;3.20;;
47429;SDS011;33181;49.246;7.372;2022-12-29T04:12:59;4.20;;;3.03;;
47429;SDS011;33181;49.246;7.372;2022-12-29T04:15:24;5.10;;;3.17;;
47429;SDS011;33181;49.246;7.372;2022-12-29T04:17:51;9.50;;;3.10;;
47429;SDS011;33181;49.246;7.372;2022-12-29T04:20:17;5.30;;;3.20;;
47429;SDS011;33181;49.246;7.372;2022-12-29T04:23:01;6.10;;;3.10;;
47429;SDS011;33181;49.246;7.372;2022-12-29T04:25:30;5.77;;;3.47;;
47429;SDS011;33181;49.246;7.372;2022-12-29T04:27:56;5.13;;;2.97;;
47429;SDS011;33181;49.246;7.372;2022-12-29T04:30:22;6.77;;;3.17;;
47429;SDS011;33181;49.246;7.372;2022-12-29T04:32:48;8.70;;;3.67;;
47429;SDS011;33181;49.246;7.372;2022-12-29T04:35:14;3.97;;;2.90;;
47429;SDS011;33181;49.246;7.372;2022-12-29T04:37:39;4.67;;;3.03;;
47429;SDS011;33181;49.246;7.372;2022-12-29T04:40:05;5.40;;;2.87;;
47429;SDS011;33181;49.246;7.372;2022-12-29T04:42:32;3.90;;;2.87;;
47429;SDS011;33181;49.246;7.372;2022-12-29T04:44:58;5.83;;;3.20;;
47429;SDS011;33181;49.246;7.372;2022-12-29T04:47:23;4.57;;;2.60;;
47429;SDS011;33181;49.246;7.372;2022-12-29T04:49:49;5.50;;;3.50;;
47429;SDS011;33181;49.246;7.372;2022-12-29T04:52:15;4.67;;;2.93;;
47429;SDS011;33181;49.246;7.372;2022-12-29T04:54:40;6.13;;;3.00;;
47429;SDS011;33181;49.246;7.372;2022-12-29T04:57:06;3.43;;;2.70;;
47429;SDS011;33181;49.246;7.372;2022-12-29T04:59:32;7.80;;;3.20;;
47429;SDS011;33181;49.246;7.372;2022-12-29T05:01:57;4.07;;;2.83;;
47429;SDS011;33181;49.246;7.372;2022-12-29T05:04:23;4.03;;;3.03;;
47429;SDS011;33181;49.246;7.372;2022-12-29T05:06:49;4.67;;;2.90;;
47429;SDS011;33181;49.246;7.372;2022-12-29T05:09:14;6.00;;;3.23;;
47429;SDS011;33181;49.246;7.372;2022-12-29T05:11:40;3.93;;;3.27;;
47429;SDS011;33181;49.246;7.372;2022-12-29T05:14:06;6.20;;;3.30;;
47429;SDS011;33181;49.246;7.372;2022-12-29T05:16:32;5.50;;;3.60;;
47429;SDS011;33181;49.246;7.372;2022-12-29T05:18:57;4.30;;;3.20;;
47429;SDS011;33181;49.246;7.372;2022-12-29T05:21:23;3.57;;;2.90;;
47429;SDS011;33181;49.246;7.372;2022-12-29T05:23:49;5.27;;;3.20;;
47429;SDS011;33181;49.246;7.372;2022-12-29T05:26:14;6.90;;;3.77;;
47429;SDS011;33181;49.246;7.372;2022-12-29T05:28:40;7.13;;;3.50;;
47429;SDS011;33181;49.246;7.372;2022-12-29T05:31:06;5.70;;;3.40;;
47429;SDS011;33181;49.246;7.372;2022-12-29T05:33:31;5.00;;;3.67;;
47429;SDS011;33181;49.246;7.372;2022-12-29T05:36:02;6.60;;;3.63;;
47429;SDS011;33181;49.246;7.372;2022-12-29T05:38:30;4.73;;;3.47;;
47429;SDS011;33181;49.246;7.372;2022-12-29T05:40:55;5.77;;;3.70;;
47429;SDS011;33181;49.246;7.372;2022-12-29T05:43:21;7.43;;;3.90;;
47429;SDS011;33181;49.246;7.372;2022-12-29T05:45:50;5.00;;;3.53;;
47429;SDS011;33181;49.246;7.372;2022-12-29T05:48:18;9.23;;;4.30;;
47429;SDS011;33181;49.246;7.372;2022-12-29T05:50:50;9.53;;;3.50;;
47429;SDS011;33181;49.246;7.372;2022-12-29T05:53:16;7.43;;;3.33;;
47429;SDS011;33181;49.246;7.372;2022-12-29T05:55:48;10.70;;;3.93;;
47429;SDS011;33181;49.246;7.372;2022-12-29T05:58:14;6.40;;;3.67;;
47429;SDS011;33181;49.246;7.372;2022-12-29T06:00:41;6.80;;;3.60;;
47429;SDS011;33181;49.246;7.372;2022-12-29T06:03:08;5.83;;;3.63;;
47429;SDS011;33181;49.246;7.372;2022-12-29T06:05:33;6.07;;;3.90;;
47429;SDS011;33181;49.246;7.372;2022-12-29T06:07:59;7.20;;;4.13;;
47429;SDS011;33181;49.246;7.372;2022-12-29T06:10:25;5.33;;;3.80;;
47429;SDS011;33181;49.246;7.372;2022-12-29T06:12:50;6.00;;;3.73;;
47429;SDS011;33181;49.246;7.372;2022-12-29T06:15:16;4.90;;;3.67;;
47429;SDS011;33181;49.246;7.372;2022-12-29T06:17:42;8.77;;;3.90;;
47429;SDS011;33181;49.246;7.372;2022-12-29T06:20:08;5.70;;;3.70;;
47429;SDS011;33181;49.246;7.372;2022-12-29T06:22:35;5.43;;;3.40;;
47429;SDS011;33181;49.246;7.372;2022-12-29T06:25:01;5.30;;;3.53;;
47429;SDS011;33181;49.246;7.372;2022-12-29T06:27:28;8.60;;;3.97;;
47429;SDS011;33181;49.246;7.372;2022-12-29T06:29:53;6.57;;;3.50;;
47429;SDS011;33181;49.246;7.372;2022-12-29T06:32:21;8.00;;;3.90;;
47429;SDS011;33181;49.246;7.372;2022-12-29T06:34:46;6.27;;;3.67;;
47429;SDS011;33181;49.246;7.372;2022-12-29T06:37:12;5.27;;;3.57;;
47429;SDS011;33181;49.246;7.372;2022-12-29T06:39:38;7.60;;;3.60;;
47429;SDS011;33181;49.246;7.372;2022-12-29T06:42:03;10.40;;;3.60;;
47429;SDS011;33181;49.246;7.372;2022-12-29T06:44:29;6.23;;;3.63;;
47429;SDS011;33181;49.246;7.372;2022-12-29T06:46:55;4.77;;;3.40;;
47429;SDS011;33181;49.246;7.372;2022-12-29T06:49:22;10.53;;;4.07;;
47429;SDS011;33181;49.246;7.372;2022-12-29T06:51:48;6.50;;;3.77;;
47429;SDS011;33181;49.246;7.372;2022-12-29T06:54:13;6.37;;;3.63;;
47429;SDS011;33181;49.246;7.372;2022-12-29T06:56:39;8.10;;;4.27;;
47429;SDS011;33181;49.246;7.372;2022-12-29T06:59:05;5.93;;;4.10;;
47429;SDS011;33181;49.246;7.372;2022-12-29T07:01:31;8.53;;;3.90;;
47429;SDS011;33181;49.246;7.372;2022-12-29T07:03:57;6.70;;;3.80;;
47429;SDS011;33181;49.246;7.372;2022-12-29T07:06:23;7.43;;;3.63;;
47429;SDS011;33181;49.246;7.372;2022-12-29T07:08:48;4.80;;;3.60;;
47429;SDS011;33181;49.246;7.372;2022-12-29T07:11:14;6.53;;;3.90;;
47429;SDS011;33181;49.246;7.372;2022-12-29T07:13:40;6.93;;;4.03;;
47429;SDS011;33181;49.246;7.372;2022-12-29T07:16:06;7.17;;;4.03;;
47429;SDS011;33181;49.246;7.372;2022-12-29T07:18:33;7.70;;;4.37;;
47429;SDS011;33181;49.246;7.372;2022-12-29T07:20:59;6.03;;;4.13;;
47429;SDS011;33181;49.246;7.372;2022-12-29T07:23:25;5.33;;;3.90;;
47429;SDS011;33181;49.246;7.372;2022-12-29T07:25:58;5.93;;;4.20;;
47429;SDS011;33181;49.246;7.372;2022-12-29T07:28:29;7.77;;;3.80;;
47429;SDS011;33181;49.246;7.372;2022-12-29T07:30:55;7.97;;;4.30;;
47429;SDS011;33181;49.246;7.372;2022-12-29T07:33:21;5.53;;;4.00;;
47429;SDS011;33181;49.246;7.372;2022-12-29T07:35:46;5.93;;;4.00;;
47429;SDS011;33181;49.246;7.372;2022-12-29T07:38:12;9.90;;;4.63;;
47429;SDS011;33181;49.246;7.372;2022-12-29T07:40:38;5.47;;;4.47;;
47429;SDS011;33181;49.246;7.372;2022-12-29T07:43:03;7.33;;;4.83;;
47429;SDS011;33181;49.246;7.372;2022-12-29T07:45:29;7.80;;;4.50;;
47429;SDS011;33181;49.246;7.372;2022-12-29T07:47:55;8.23;;;4.30;;
47429;SDS011;33181;49.246;7.372;2022-12-29T07:50:21;10.53;;;4.80;;
47429;SDS011;33181;49.246;7.372;2022-12-29T07:52:46;9.00;;;5.20;;
47429;SDS011;33181;49.246;7.372;2022-12-29T07:55:13;9.27;;;4.30;;
47429;SDS011;33181;49.246;7.372;2022-12-29T07:57:42;7.63;;;5.00;;
47429;SDS011;33181;49.246;7.372;2022-12-29T08:00:08;9.20;;;5.00;;
47429;SDS011;33181;49.246;7.372;2022-12-29T08:02:35;6.80;;;4.70;;
47429;SDS011;33181;49.246;7.372;2022-12-29T08:05:01;7.57;;;5.07;;
47429;SDS011;33181;49.246;7.372;2022-12-29T08:07:27;9.77;;;5.47;;
47429;SDS011;33181;49.246;7.372;2022-12-29T08:09:53;7.47;;;4.67;;
47429;SDS011;33181;49.246;7.372;2022-12-29T08:12:18;12.03;;;5.10;;
47429;SDS011;33181;49.246;7.372;2022-12-29T08:14:44;8.37;;;4.80;;
47429;SDS011;33181;49.246;7.372;2022-12-29T08:17:10;7.63;;;5.00;;
47429;SDS011;33181;49.246;7.372;2022-12-29T08:19:36;8.10;;;5.00;;
47429;SDS011;33181;49.246;7.372;2022-12-29T08:22:02;9.57;;;5.00;;
47429;SDS011;33181;49.246;7.372;2022-12-29T08:24:28;8.60;;;4.40;;
47429;SDS011;33181;49.246;7.372;2022-12-29T08:26:56;9.33;;;5.50;;
47429;SDS011;33181;49.246;7.372;2022-12-29T08:29:22;8.17;;;5.57;;
47429;SDS011;33181;49.246;7.372;2022-12-29T08:31:48;7.03;;;4.87;;
47429;SDS011;33181;49.246;7.372;2022-12-29T08:34:13;9.30;;;5.07;;
47429;SDS011;33181;49.246;7.372;2022-12-29T08:36:39;7.73;;;4.83;;
47429;SDS011;33181;49.246;7.372;2022-12-29T08:39:05;10.33;;;5.43;;
47429;SDS011;33181;49.246;7.372;2022-12-29T08:41:31;7.40;;;5.30;;
47429;SDS011;33181;49.246;7.372;2022-12-29T08:43:57;11.10;;;6.70;;
47429;SDS011;33181;49.246;7.372;2022-12-29T08:46:22;9.07;;;6.00;;
47429;SDS011;33181;49.246;7.372;2022-12-29T08:48:48;8.30;;;5.80;;
47429;SDS011;33181;49.246;7.372;2022-12-29T08:51:16;7.53;;;5.30;;
47429;SDS011;33181;49.246;7.372;2022-12-29T08:53:42;9.47;;;5.90;;
47429;SDS011;33181;49.246;7.372;2022-12-29T08:56:08;6.80;;;5.23;;
47429;SDS011;33181;49.246;7.372;2022-12-29T08:58:35;9.13;;;5.57;;
47429;SDS011;33181;49.246;7.372;2022-12-29T09:01:01;9.43;;;5.70;;
47429;SDS011;33181;49.246;7.372;2022-12-29T09:03:26;7.70;;;5.40;;
47429;SDS011;33181;49.246;7.372;2022-12-29T09:05:53;9.97;;;5.60;;
47429;SDS011;33181;49.246;7.372;2022-12-29T09:08:20;10.67;;;5.63;;
47429;SDS011;33181;49.246;7.372;2022-12-29T09:10:47;9.03;;;6.10;;
47429;SDS011;33181;49.246;7.372;2022-12-29T09:13:13;12.17;;;7.40;;
47429;SDS011;33181;49.246;7.372;2022-12-29T09:15:40;10.53;;;5.90;;
47429;SDS011;33181;49.246;7.372;2022-12-29T09:18:07;10.73;;;6.13;;
47429;SDS011;33181;49.246;7.372;2022-12-29T09:20:34;10.87;;;6.03;;
47429;SDS011;33181;49.246;7.372;2022-12-29T09:23:00;10.80;;;6.10;;
47429;SDS011;33181;49.246;7.372;2022-12-29T09:25:26;9.03;;;6.17;;
47429;SDS011;33181;49.246;7.372;2022-12-29T09:27:52;10.07;;;6.10;;
47429;SDS011;33181;49.246;7.372;2022-12-29T09:30:19;12.33;;;5.90;;
47429;SDS011;33181;49.246;7.372;2022-12-29T09:32:47;9.00;;;5.83;;
47429;SDS011;33181;49.246;7.372;2022-12-29T09:35:14;8.37;;;5.40;;
47429;SDS011;33181;49.246;7.372;2022-12-29T09:37:41;7.63;;;5.60;;
47429;SDS011;33181;49.246;7.372;2022-12-29T09:40:19;13.37;;;5.73;;
47429;SDS011;33181;49.246;7.372;2022-12-29T09:43:05;11.23;;;6.10;;
47429;SDS011;33181;49.246;7.372;2022-12-29T09:46:31;7.53;;;5.30;;
47429;SDS011;33181;49.246;7.372;2022-12-29T09:49:16;7.67;;;5.63;;
47429;SDS011;33181;49.246;7.372;2022-12-29T09:51:57;8.00;;;5.63;;
47429;SDS011;33181;49.246;7.372;2022-12-29T09:54:48;11.70;;;5.23;;
47429;SDS011;33181;49.246;7.372;2022-12-29T09:57:24;8.53;;;4.80;;
47429;SDS011;33181;49.246;7.372;2022-12-29T09:59:59;7.10;;;4.80;;
47429;SDS011;33181;49.246;7.372;2022-12-29T10:05:48;6.53;;;3.90;;
47429;SDS011;33181;49.246;7.372;2022-12-29T10:11:17;6.83;;;3.70;;
47429;SDS011;33181;49.246;7.372;2022-12-29T10:20:33;5.27;;;3.47;;
47429;SDS011;33181;49.246;7.372;2022-12-29T10:23:36;6.13;;;4.30;;
47429;SDS011;33181;49.246;7.372;2022-12-29T10:26:09;10.20;;;3.57;;
47429;SDS011;33181;49.246;7.372;2022-12-29T10:31:40;6.90;;;3.63;;
47429;SDS011;33181;49.246;7.372;2022-12-29T10:34:34;5.20;;;3.37;;
47429;SDS011;33181;49.246;7.372;2022-12-29T10:37:27;7.27;;;4.00;;
47429;SDS011;33181;49.246;7.372;2022-12-29T10:40:10;5.80;;;3.37;;
47429;SDS011;33181;49.246;7.372;2022-12-29T10:43:26;6.37;;;3.73;;
47429;SDS011;33181;49.246;7.372;2022-12-29T10:45:54;8.53;;;4.10;;
47429;SDS011;33181;49.246;7.372;2022-12-29T10:48:25;7.57;;;5.00;;
47429;SDS011;33181;49.246;7.372;2022-12-29T10:50:59;6.50;;;3.90;;
47429;SDS011;33181;49.246;7.372;2022-12-29T10:53:40;5.13;;;3.60;;
47429;SDS011;33181;49.246;7.372;2022-12-29T10:56:30;5.60;;;3.20;;
47429;SDS011;33181;49.246;7.372;2022-12-29T10:59:13;8.87;;;3.83;;
47429;SDS011;33181;49.246;7.372;2022-12-29T11:07:27;6.43;;;3.57;;
47429;SDS011;33181;49.246;7.372;2022-12-29T11:10:15;9.53;;;3.40;;
47429;SDS011;33181;49.246;7.372;2022-12-29T11:13:13;4.93;;;2.60;;
47429;SDS011;33181;49.246;7.372;2022-12-29T11:15:58;4.30;;;2.40;;
47429;SDS011;33181;49.246;7.372;2022-12-29T11:21:03;4.10;;;2.67;;
47429;SDS011;33181;49.246;7.372;2022-12-29T11:23:38;4.73;;;2.60;;
47429;SDS011;33181;49.246;7.372;2022-12-29T11:26:14;4.43;;;3.17;;
47429;SDS011;33181;49.246;7.372;2022-12-29T11:28:47;3.53;;;2.50;;
47429;SDS011;33181;49.246;7.372;2022-12-29T11:31:50;3.57;;;2.80;;
47429;SDS011;33181;49.246;7.372;2022-12-29T11:34:24;5.87;;;3.03;;
47429;SDS011;33181;49.246;7.372;2022-12-29T11:37:36;5.33;;;2.90;;
47429;SDS011;33181;49.246;7.372;2022-12-29T11:39:58;6.33;;;3.70;;
47429;SDS011;33181;49.246;7.372;2022-12-29T11:42:48;4.23;;;3.27;;
47429;SDS011;33181;49.246;7.372;2022-12-29T11:45:28;6.10;;;4.00;;
47429;SDS011;33181;49.246;7.372;2022-12-29T11:48:17;7.27;;;3.90;;
47429;SDS011;33181;49.246;7.372;2022-12-29T11:50:53;8.77;;;3.97;;
47429;SDS011;33181;49.246;7.372;2022-12-29T11:56:13;4.60;;;3.20;;
47429;SDS011;33181;49.246;7.372;2022-12-29T11:58:41;4.97;;;2.93;;
47429;SDS011;33181;49.246;7.372;2022-12-29T12:01:13;3.53;;;2.60;;
47429;SDS011;33181;49.246;7.372;2022-12-29T12:04:08;7.13;;;3.53;;
47429;SDS011;33181;49.246;7.372;2022-12-29T12:06:45;5.63;;;2.93;;
47429;SDS011;33181;49.246;7.372;2022-12-29T12:09:33;4.20;;;2.70;;
47429;SDS011;33181;49.246;7.372;2022-12-29T12:12:08;4.77;;;2.40;;
47429;SDS011;33181;49.246;7.372;2022-12-29T12:15:13;5.03;;;2.53;;
47429;SDS011;33181;49.246;7.372;2022-12-29T12:18:09;4.23;;;2.60;;
47429;SDS011;33181;49.246;7.372;2022-12-29T12:27:08;4.17;;;2.30;;
47429;SDS011;33181;49.246;7.372;2022-12-29T12:32:52;5.30;;;2.90;;
47429;SDS011;33181;49.246;7.372;2022-12-29T12:42:12;3.80;;;1.80;;
47429;SDS011;33181;49.246;7.372;2022-12-29T12:47:49;4.47;;;1.97;;
47429;SDS011;33181;49.246;7.372;2022-12-29T12:56:12;3.10;;;2.00;;
47429;SDS011;33181;49.246;7.372;2022-12-29T12:58:58;6.23;;;2.40;;
47429;SDS011;33181;49.246;7.372;2022-12-29T13:11:35;4.37;;;2.17;;
47429;SDS011;33181;49.246;7.372;2022-12-29T13:15:09;2.87;;;1.90;;
47429;SDS011;33181;49.246;7.372;2022-12-29T13:18:23;3.90;;;2.00;;
47429;SDS011;33181;49.246;7.372;2022-12-29T13:21:45;3.30;;;1.80;;
47429;SDS011;33181;49.246;7.372;2022-12-29T13:27:48;3.27;;;2.20;;
47429;SDS011;33181;49.246;7.372;2022-12-29T13:30:55;3.87;;;2.03;;
47429;SDS011;33181;49.246;7.372;2022-12-29T13:34:05;5.20;;;2.37;;
47429;SDS011;33181;49.246;7.372;2022-12-29T13:36:44;3.33;;;2.00;;
47429;SDS011;33181;49.246;7.372;2022-12-29T13:39:17;3.13;;;1.93;;
47429;SDS011;33181;49.246;7.372;2022-12-29T13:42:07;5.53;;;2.20;;
47429;SDS011;33181;49.246;7.372;2022-12-29T13:44:36;3.90;;;2.10;;
47429;SDS011;33181;49.246;7.372;2022-12-29T13:50:14;4.50;;;2.53;;
47429;SDS011;33181;49.246;7.372;2022-12-29T13:55:48;5.47;;;2.40;;
47429;SDS011;33181;49.246;7.372;2022-12-29T14:01:34;6.43;;;2.60;;
47429;SDS011;33181;49.246;7.372;2022-12-29T14:04:24;5.70;;;2.40;;
47429;SDS011;33181;49.246;7.372;2022-12-29T14:12:19;3.80;;;2.30;;
47429;SDS011;33181;49.246;7.372;2022-12-29T14:17:34;4.87;;;2.60;;
47429;SDS011;33181;49.246;7.372;2022-12-29T14:20:00;5.63;;;2.73;;
47429;SDS011;33181;49.246;7.372;2022-12-29T14:22:28;6.43;;;3.50;;
47429;SDS011;33181;49.246;7.372;2022-12-29T14:24:54;4.83;;;2.67;;
47429;SDS011;33181;49.246;7.372;2022-12-29T14:29:46;6.80;;;2.70;;
47429;SDS011;33181;49.246;7.372;2022-12-29T14:37:26;7.00;;;2.70;;
47429;SDS011;33181;49.246;7.372;2022-12-29T14:42:44;5.97;;;2.97;;
47429;SDS011;33181;49.246;7.372;2022-12-29T14:47:42;8.77;;;2.70;;
47429;SDS011;33181;49.246;7.372;2022-12-29T14:50:14;8.40;;;2.90;;
47429;SDS011;33181;49.246;7.372;2022-12-29T14:52:55;5.43;;;2.67;;
47429;SDS011;33181;49.246;7.372;2022-12-29T14:55:46;6.63;;;2.90;;
47429;SDS011;33181;49.246;7.372;2022-12-29T14:58:34;7.60;;;3.00;;
47429;SDS011;33181;49.246;7.372;2022-12-29T15:01:28;7.17;;;2.33;;
47429;SDS011;33181;49.246;7.372;2022-12-29T15:04:21;9.63;;;2.87;;
47429;SDS011;33181;49.246;7.372;2022-12-29T15:06:55;7.20;;;2.80;;
47429;SDS011;33181;49.246;7.372;2022-12-29T15:09:34;7.23;;;3.30;;
47429;SDS011;33181;49.246;7.372;2022-12-29T15:14:55;7.53;;;2.63;;
47429;SDS011;33181;49.246;7.372;2022-12-29T15:17:25;10.30;;;2.77;;
47429;SDS011;33181;49.246;7.372;2022-12-29T15:20:00;5.20;;;2.93;;
47429;SDS011;33181;49.246;7.372;2022-12-29T15:22:46;4.83;;;2.47;;
47429;SDS011;33181;49.246;7.372;2022-12-29T15:25:27;6.20;;;2.53;;
47429;SDS011;33181;49.246;7.372;2022-12-29T15:27:54;8.57;;;2.63;;
47429;SDS011;33181;49.246;7.372;2022-12-29T15:30:28;7.00;;;2.70;;
47429;SDS011;33181;49.246;7.372;2022-12-29T15:32:54;6.30;;;2.80;;
47429;SDS011;33181;49.246;7.372;2022-12-29T15:35:22;6.43;;;2.70;;
47429;SDS011;33181;49.246;7.372;2022-12-29T15:37:53;6.13;;;2.57;;
47429;SDS011;33181;49.246;7.372;2022-12-29T15:40:24;7.60;;;2.60;;
47429;SDS011;33181;49.246;7.372;2022-12-29T15:45:55;4.87;;;2.70;;
47429;SDS011;33181;49.246;7.372;2022-12-29T15:48:22;6.23;;;2.30;;
47429;SDS011;33181;49.246;7.372;2022-12-29T15:50:49;6.63;;;2.80;;
47429;SDS011;33181;49.246;7.372;2022-12-29T15:53:27;9.00;;;2.30;;
47429;SDS011;33181;49.246;7.372;2022-12-29T15:55:59;5.77;;;2.57;;
47429;SDS011;33181;49.246;7.372;2022-12-29T15:58:31;4.80;;;2.47;;
47429;SDS011;33181;49.246;7.372;2022-12-29T16:01:23;5.60;;;2.43;;
47429;SDS011;33181;49.246;7.372;2022-12-29T16:04:00;7.57;;;2.80;;
47429;SDS011;33181;49.246;7.372;2022-12-29T16:06:34;7.50;;;2.53;;
47429;SDS011;33181;49.246;7.372;2022-12-29T16:09:15;5.67;;;2.70;;
47429;SDS011;33181;49.246;7.372;2022-12-29T16:14:19;8.30;;;2.93;;
47429;SDS011;33181;49.246;7.372;2022-12-29T16:17:00;7.30;;;2.80;;
47429;SDS011;33181;49.246;7.372;2022-12-29T16:19:38;5.63;;;2.50;;
47429;SDS011;33181;49.246;7.372;2022-12-29T16:22:10;11.20;;;2.93;;
47429;SDS011;33181;49.246;7.372;2022-12-29T16:24:42;7.03;;;3.00;;
47429;SDS011;33181;49.246;7.372;2022-12-29T16:27:31;12.90;;;3.43;;
47429;SDS011;33181;49.246;7.372;2022-12-29T16:30:16;12.23;;;3.37;;
47429;SDS011;33181;49.246;7.372;2022-12-29T16:32:53;6.80;;;3.17;;
47429;SDS011;33181;49.246;7.372;2022-12-29T16:35:27;7.27;;;2.90;;
47429;SDS011;33181;49.246;7.372;2022-12-29T16:41:01;14.87;;;3.77;;
47429;SDS011;33181;49.246;7.372;2022-12-29T16:43:31;6.80;;;3.20;;
47429;SDS011;33181;49.246;7.372;2022-12-29T16:46:21;12.10;;;3.97;;
47429;SDS011;33181;49.246;7.372;2022-12-29T16:48:53;11.73;;;3.30;;
47429;SDS011;33181;49.246;7.372;2022-12-29T16:51:34;7.17;;;3.40;;
47429;SDS011;33181;49.246;7.372;2022-12-29T16:54:01;6.50;;;3.17;;
47429;SDS011;33181;49.246;7.372;2022-12-29T16:56:30;6.37;;;3.17;;
47429;SDS011;33181;49.246;7.372;2022-12-29T16:59:04;9.63;;;3.47;;
47429;SDS011;33181;49.246;7.372;2022-12-29T17:01:36;9.30;;;3.60;;
47429;SDS011;33181;49.246;7.372;2022-12-29T17:04:10;7.43;;;2.77;;
47429;SDS011;33181;49.246;7.372;2022-12-29T17:06:38;10.50;;;2.90;;
47429;SDS011;33181;49.246;7.372;2022-12-29T17:09:24;9.40;;;3.33;;
47429;SDS011;33181;49.246;7.372;2022-12-29T17:11:56;10.50;;;3.30;;
47429;SDS011;33181;49.246;7.372;2022-12-29T17:17:21;12.73;;;5.37;;
47429;SDS011;33181;49.246;7.372;2022-12-29T17:22:48;13.07;;;4.30;;
47429;SDS011;33181;49.246;7.372;2022-12-29T17:25:22;13.43;;;5.13;;
47429;SDS011;33181;49.246;7.372;2022-12-29T17:27:59;14.57;;;5.40;;
47429;SDS011;33181;49.246;7.372;2022-12-29T17:30:39;9.17;;;5.00;;
47429;SDS011;33181;49.246;7.372;2022-12-29T17:33:06;6.17;;;3.80;;
47429;SDS011;33181;49.246;7.372;2022-12-29T17:35:37;18.77;;;6.20;;
47429;SDS011;33181;49.246;7.372;2022-12-29T17:38:09;16.93;;;7.10;;
47429;SDS011;33181;49.246;7.372;2022-12-29T17:40:55;14.13;;;6.30;;
47429;SDS011;33181;49.246;7.372;2022-12-29T17:43:22;7.43;;;3.90;;
47429;SDS011;33181;49.246;7.372;2022-12-29T17:45:50;10.83;;;4.80;;
47429;SDS011;33181;49.246;7.372;2022-12-29T17:48:22;11.33;;;5.90;;
47429;SDS011;33181;49.246;7.372;2022-12-29T17:50:48;10.90;;;5.43;;
47429;SDS011;33181;49.246;7.372;2022-12-29T17:53:24;16.07;;;8.07;;
47429;SDS011;33181;49.246;7.372;2022-12-29T17:55:53;13.10;;;5.90;;